Time;durP1;ratioP1;P1;durP2;ratioP2;P2;SDS_P1;SDS_P2;PMS_P1;PMS_P2;Temp;Humidity;BMP_temperature;BMP_pressure;BME280_temperature;BME280_humidity;BME280_pressure;Samples;Min_cycle;Max_cycle;Signal;HPM_P1;HPM_P2
2021/12/21 00:00:49;;;;;;;35.97;13.88;;;3.50;99.90;;;;;;4945316;29;20086;-71
2021/12/21 00:03:15;;;;;;;31.45;12.57;;;3.40;99.90;;;;;;4953258;29;20031;-73
2021/12/21 00:05:41;;;;;;;33.00;12.05;;;3.30;99.90;;;;;;4947322;28;20038;-71
2021/12/21 00:08:10;;;;;;;29.83;12.35;;;3.30;99.90;;;;;;4958730;29;20030;-71
2021/12/21 00:10:36;;;;;;;31.58;13.13;;;3.20;99.90;;;;;;4958067;29;20117;-73
2021/12/21 00:13:22;;;;;;;28.27;13.15;;;3.20;99.90;;;;;;4958410;29;20117;-71
2021/12/21 00:16:01;;;;;;;30.77;13.48;;;3.20;99.90;;;;;;4956676;29;20028;-72
2021/12/21 00:18:35;;;;;;;28.95;13.98;;;3.20;99.90;;;;;;4946373;29;20038;-71
2021/12/21 00:23:48;;;;;;;29.80;14.18;;;3.10;99.90;;;;;;4943758;29;20487;-72
2021/12/21 00:26:17;;;;;;;35.13;15.63;;;3.10;99.90;;;;;;4940797;29;20047;-72
2021/12/21 00:31:09;;;;;;;40.17;17.90;;;3.00;99.90;;;;;;4954948;29;20055;-71
2021/12/21 00:33:39;;;;;;;44.33;20.30;;;3.00;99.90;;;;;;4939628;29;20031;-73
2021/12/21 00:36:05;;;;;;;74.15;33.75;;;3.00;99.90;;;;;;4950427;29;20059;-73
2021/12/21 00:38:30;;;;;;;65.45;30.73;;;3.00;99.90;;;;;;4944757;29;20057;-73
2021/12/21 00:40:56;;;;;;;82.13;39.90;;;3.00;99.90;;;;;;4944184;29;20111;-73
2021/12/21 00:43:21;;;;;;;62.60;29.45;;;3.00;99.90;;;;;;4939335;29;20027;-71
2021/12/21 00:45:47;;;;;;;64.57;27.60;;;3.00;99.90;;;;;;4943090;29;20028;-70
2021/12/21 00:48:15;;;;;;;50.88;20.52;;;3.00;99.90;;;;;;4948687;29;20081;-71
2021/12/21 00:50:41;;;;;;;41.47;16.80;;;3.00;99.90;;;;;;4946283;29;20058;-70
2021/12/21 00:53:07;;;;;;;40.97;19.42;;;3.00;99.90;;;;;;4950930;29;20059;-73
2021/12/21 00:55:33;;;;;;;52.15;28.85;;;3.00;99.90;;;;;;4951318;29;20023;-72
2021/12/21 00:57:59;;;;;;;41.03;16.40;;;3.00;99.90;;;;;;4929100;29;20031;-73
2021/12/21 01:00:25;;;;;;;42.35;16.13;;;3.00;99.90;;;;;;4957170;29;20077;-72
2021/12/21 01:02:51;;;;;;;38.65;15.00;;;3.00;99.90;;;;;;4954173;29;20491;-70
2021/12/21 01:05:31;;;;;;;29.08;12.77;;;3.00;99.90;;;;;;4941678;29;20027;-70
2021/12/21 01:07:59;;;;;;;29.75;12.30;;;3.00;99.90;;;;;;4944930;29;20028;-70
2021/12/21 01:13:11;;;;;;;35.85;11.77;;;3.10;99.90;;;;;;4957018;29;20054;-70
2021/12/21 01:15:57;;;;;;;30.98;11.32;;;3.00;99.90;;;;;;4938037;29;20074;-71
2021/12/21 01:18:30;;;;;;;30.25;11.02;;;3.00;99.90;;;;;;4939155;29;20031;-69
2021/12/21 01:21:11;;;;;;;28.13;11.07;;;3.00;99.90;;;;;;4957009;29;20023;-71
2021/12/21 01:26:49;;;;;;;27.23;11.02;;;3.00;99.90;;;;;;4956708;29;20586;-73
2021/12/21 01:32:07;;;;;;;24.08;10.60;;;3.00;99.90;;;;;;4955340;29;20094;-72
2021/12/21 01:37:08;;;;;;;33.15;10.80;;;3.00;99.90;;;;;;4955254;29;20046;-72
2021/12/21 01:42:21;;;;;;;26.77;10.30;;;3.00;99.90;;;;;;4941798;29;20479;-72
2021/12/21 01:50:15;;;;;;;26.05;10.15;;;3.00;99.90;;;;;;4949440;29;20034;-70
2021/12/21 01:52:40;;;;;;;36.28;10.73;;;2.90;99.90;;;;;;4938458;29;20052;-72
2021/12/21 01:55:06;;;;;;;28.58;10.98;;;2.90;99.90;;;;;;4946844;29;20463;-72
2021/12/21 01:57:32;;;;;;;32.42;10.23;;;2.90;99.90;;;;;;4952174;29;20031;-72
2021/12/21 01:59:58;;;;;;;35.10;10.23;;;2.90;99.90;;;;;;4947066;28;20101;-72
2021/12/21 02:02:24;;;;;;;30.52;10.15;;;2.80;99.90;;;;;;4975551;28;20578;-71
2021/12/21 02:04:49;;;;;;;24.23;9.20;;;2.80;99.90;;;;;;4953719;28;20082;-72
2021/12/21 02:07:15;;;;;;;25.85;8.50;;;2.80;99.90;;;;;;4952461;29;20031;-70
2021/12/21 02:09:41;;;;;;;24.52;8.95;;;2.80;99.90;;;;;;4954306;29;20035;-71
2021/12/21 02:12:10;;;;;;;21.40;8.20;;;2.80;99.90;;;;;;4938643;29;20099;-72
2021/12/21 02:14:37;;;;;;;27.83;10.10;;;2.80;99.90;;;;;;4937612;29;20439;-72
2021/12/21 02:19:43;;;;;;;25.67;8.52;;;2.80;99.90;;;;;;4955551;29;20055;-72
2021/12/21 02:22:13;;;;;;;29.50;9.45;;;2.80;99.90;;;;;;4950923;29;20027;-74
2021/12/21 02:24:48;;;;;;;25.08;9.77;;;2.80;99.90;;;;;;4940450;29;20015;-72
2021/12/21 02:27:25;;;;;;;25.80;9.40;;;2.70;99.90;;;;;;4936506;29;20030;-73
2021/12/21 02:29:51;;;;;;;28.50;9.23;;;2.70;99.90;;;;;;4949537;28;20031;-68
2021/12/21 02:32:17;;;;;;;26.05;8.85;;;2.70;99.90;;;;;;4932140;29;20050;-69
2021/12/21 02:34:44;;;;;;;21.33;7.95;;;2.70;99.90;;;;;;4942782;29;20027;-69
2021/12/21 02:37:11;;;;;;;28.88;9.20;;;2.70;99.90;;;;;;4946365;29;20023;-69
2021/12/21 02:39:37;;;;;;;24.30;9.02;;;2.70;99.90;;;;;;4954865;28;20494;-69
2021/12/21 02:42:04;;;;;;;29.15;10.40;;;2.70;99.90;;;;;;4955886;28;20023;-70
2021/12/21 02:44:29;;;;;;;25.55;11.15;;;2.70;99.90;;;;;;4963009;28;20086;-69
2021/12/21 02:46:55;;;;;;;25.88;9.73;;;2.60;99.90;;;;;;4969139;28;20078;-70
2021/12/21 02:49:20;;;;;;;26.25;9.23;;;2.60;99.90;;;;;;4963031;28;20040;-69
2021/12/21 02:51:47;;;;;;;25.55;9.18;;;2.50;99.90;;;;;;4956933;28;20475;-69
2021/12/21 02:54:14;;;;;;;28.08;9.38;;;2.50;99.90;;;;;;4973876;28;20022;-68
2021/12/21 02:56:40;;;;;;;25.10;9.40;;;2.50;99.90;;;;;;4973779;28;20391;-71
2021/12/21 02:59:06;;;;;;;26.02;10.10;;;2.50;99.90;;;;;;4974377;28;20058;-71
2021/12/21 03:01:32;;;;;;;27.38;11.85;;;2.40;99.90;;;;;;4971609;28;20031;-68
2021/12/21 03:03:58;;;;;;;26.55;11.95;;;2.40;99.90;;;;;;4973398;28;20026;-72
2021/12/21 03:08:59;;;;;;;25.27;10.43;;;2.40;99.90;;;;;;4973648;28;20027;-73
2021/12/21 03:11:47;;;;;;;24.65;10.27;;;2.30;99.90;;;;;;4967941;28;20035;-73
2021/12/21 03:14:11;;;;;;;24.63;9.65;;;2.30;99.90;;;;;;4954412;28;20035;-72
2021/12/21 03:16:38;;;;;;;30.27;9.20;;;2.20;99.90;;;;;;4954562;28;20024;-70
2021/12/21 03:19:06;;;;;;;33.85;11.30;;;2.30;99.90;;;;;;4968865;28;20137;-72
2021/12/21 03:21:32;;;;;;;31.08;9.63;;;2.30;99.90;;;;;;4945935;28;20036;-72
2021/12/21 03:23:58;;;;;;;28.30;10.20;;;2.30;99.90;;;;;;4946969;29;20349;-71
2021/12/21 03:26:24;;;;;;;30.73;10.90;;;2.30;99.90;;;;;;4949122;29;20511;-69
2021/12/21 03:28:50;;;;;;;28.27;10.45;;;2.30;99.90;;;;;;4951084;29;20078;-70
2021/12/21 03:31:16;;;;;;;25.63;9.13;;;2.30;99.90;;;;;;4942904;29;20435;-70
2021/12/21 03:33:42;;;;;;;27.65;10.02;;;2.30;99.90;;;;;;4941262;29;20036;-69
2021/12/21 03:36:08;;;;;;;34.00;10.05;;;2.20;99.90;;;;;;4936427;29;20039;-73
2021/12/21 03:38:35;;;;;;;27.77;10.73;;;2.30;99.90;;;;;;4953177;29;20023;-73
2021/12/21 03:41:05;;;;;;;37.90;10.93;;;2.30;99.90;;;;;;4931369;29;20055;-74
2021/12/21 03:43:31;;;;;;;31.67;11.18;;;2.30;99.90;;;;;;4936536;29;20023;-70
2021/12/21 03:46:07;;;;;;;31.25;11.10;;;2.20;99.90;;;;;;4947016;29;20372;-71
2021/12/21 03:48:34;;;;;;;28.40;10.85;;;2.30;99.90;;;;;;4936648;29;20023;-70
2021/12/21 03:50:59;;;;;;;34.47;10.85;;;2.30;99.90;;;;;;4947005;29;20075;-72
2021/12/21 03:53:25;;;;;;;30.33;10.85;;;2.30;99.90;;;;;;4935418;29;20059;-69
2021/12/21 03:56:02;;;;;;;31.40;10.68;;;2.30;99.90;;;;;;4944955;29;20062;-74
2021/12/21 03:58:27;;;;;;;23.35;10.25;;;2.30;99.90;;;;;;4936358;29;20054;-68
2021/12/21 04:00:53;;;;;;;25.45;10.20;;;2.30;99.90;;;;;;4935121;29;20028;-70
2021/12/21 04:03:18;;;;;;;32.17;9.70;;;2.30;99.90;;;;;;4933573;29;20452;-70
2021/12/21 04:05:44;;;;;;;30.88;10.90;;;2.30;99.90;;;;;;4935725;29;20031;-69
2021/12/21 04:08:10;;;;;;;59.22;13.65;;;2.30;99.90;;;;;;4934927;29;20388;-69
2021/12/21 04:10:35;;;;;;;31.52;10.77;;;2.30;99.90;;;;;;4935044;29;20087;-71
2021/12/21 04:13:01;;;;;;;26.45;9.00;;;2.30;99.90;;;;;;4952872;29;20035;-69
2021/12/21 04:15:28;;;;;;;23.90;9.32;;;2.20;99.90;;;;;;4953678;29;20135;-70
2021/12/21 04:17:54;;;;;;;22.95;8.85;;;2.30;99.90;;;;;;4953478;29;20031;-70
2021/12/21 04:20:20;;;;;;;26.25;9.27;;;2.20;99.90;;;;;;4953884;29;20039;-69
2021/12/21 04:22:45;;;;;;;25.13;9.38;;;2.20;99.90;;;;;;4937548;29;20456;-70
2021/12/21 04:25:12;;;;;;;26.20;9.35;;;2.20;99.90;;;;;;4935235;29;20154;-68
2021/12/21 04:27:38;;;;;;;25.27;9.25;;;2.20;99.90;;;;;;4948026;29;20140;-70
2021/12/21 04:30:04;;;;;;;30.95;10.07;;;2.20;99.90;;;;;;4953787;29;20503;-73
2021/12/21 04:32:30;;;;;;;26.58;9.80;;;2.10;99.90;;;;;;4953159;29;20105;-70
2021/12/21 04:34:55;;;;;;;28.70;10.32;;;2.10;99.90;;;;;;4953496;29;20091;-70
2021/12/21 04:37:23;;;;;;;26.65;8.98;;;2.20;99.90;;;;;;4944006;29;20019;-69
2021/12/21 04:39:58;;;;;;;28.92;10.35;;;2.10;99.90;;;;;;4950335;29;20019;-68
2021/12/21 04:42:23;;;;;;;23.92;8.23;;;2.10;99.90;;;;;;4953969;29;20023;-70
2021/12/21 04:44:49;;;;;;;23.67;9.88;;;2.10;99.90;;;;;;4952268;29;20024;-70
2021/12/21 04:47:14;;;;;;;24.70;9.20;;;2.10;99.90;;;;;;4940555;29;20049;-70
2021/12/21 04:49:40;;;;;;;25.05;8.82;;;2.00;99.90;;;;;;4941991;29;20031;-70
2021/12/21 04:52:06;;;;;;;29.20;9.50;;;2.00;99.90;;;;;;4953496;28;20121;-68
2021/12/21 04:54:31;;;;;;;27.15;10.07;;;1.90;99.90;;;;;;4956729;29;20522;-70
2021/12/21 04:56:57;;;;;;;26.30;9.90;;;1.90;99.90;;;;;;4955663;29;20031;-69
2021/12/21 04:59:23;;;;;;;31.08;11.32;;;1.90;99.90;;;;;;4955793;29;20059;-70
2021/12/21 05:01:48;;;;;;;24.88;11.25;;;1.90;99.90;;;;;;4955869;29;20058;-68
2021/12/21 05:04:14;;;;;;;47.80;11.93;;;1.90;99.90;;;;;;4957205;29;20050;-67
2021/12/21 05:06:39;;;;;;;26.50;11.68;;;1.90;99.90;;;;;;4953222;29;20019;-69
2021/12/21 05:09:21;;;;;;;33.75;12.10;;;1.90;99.90;;;;;;4938227;29;20020;-68
2021/12/21 05:11:47;;;;;;;24.17;10.70;;;1.90;99.90;;;;;;4950657;29;20054;-68
2021/12/21 05:14:12;;;;;;;88.97;16.02;;;1.90;99.90;;;;;;4942460;29;20467;-67
2021/12/21 05:16:38;;;;;;;27.13;10.85;;;1.90;99.90;;;;;;4938679;29;20027;-68
2021/12/21 05:19:04;;;;;;;32.60;11.63;;;1.90;99.90;;;;;;4938081;29;20111;-68
2021/12/21 05:21:30;;;;;;;266.63;33.55;;;2.00;99.90;;;;;;4942547;29;20027;-68
2021/12/21 05:23:56;;;;;;;28.10;12.18;;;2.00;99.90;;;;;;4944974;29;20446;-68
2021/12/21 05:26:22;;;;;;;32.47;11.50;;;2.00;99.90;;;;;;4955595;29;20105;-66
2021/12/21 05:28:47;;;;;;;26.90;10.38;;;2.00;99.90;;;;;;4936041;29;20032;-67
2021/12/21 05:31:13;;;;;;;29.60;11.25;;;2.00;99.90;;;;;;4937788;29;20126;-67
2021/12/21 05:33:39;;;;;;;37.05;10.40;;;2.00;99.90;;;;;;4937451;29;20036;-66
2021/12/21 05:36:05;;;;;;;33.70;10.85;;;1.90;99.90;;;;;;4937543;29;20468;-66
2021/12/21 05:38:33;;;;;;;31.42;11.75;;;1.90;99.90;;;;;;4951893;29;20067;-67
2021/12/21 05:41:02;;;;;;;30.52;10.95;;;1.90;99.90;;;;;;4955060;29;20103;-66
2021/12/21 05:43:28;;;;;;;37.22;14.10;;;1.90;99.90;;;;;;4955054;29;20034;-66
2021/12/21 05:45:54;;;;;;;49.55;21.17;;;1.90;99.90;;;;;;4954644;29;20106;-65
2021/12/21 05:48:19;;;;;;;41.60;16.75;;;1.90;99.90;;;;;;4937936;29;20391;-66
2021/12/21 05:50:45;;;;;;;72.53;37.45;;;1.90;99.90;;;;;;4949956;29;20087;-66
2021/12/21 05:53:11;;;;;;;44.00;20.92;;;1.90;99.90;;;;;;4938736;29;20487;-67
2021/12/21 05:55:36;;;;;;;34.60;15.55;;;1.80;99.90;;;;;;4938539;29;20032;-68
2021/12/21 05:58:02;;;;;;;31.25;12.85;;;1.80;99.90;;;;;;4955273;29;20059;-68
2021/12/21 06:00:33;;;;;;;33.83;12.82;;;1.80;99.90;;;;;;4954627;29;20020;-66
2021/12/21 06:02:59;;;;;;;41.85;14.05;;;1.80;99.90;;;;;;4947982;29;20038;-66
2021/12/21 06:05:25;;;;;;;33.28;14.38;;;1.80;99.90;;;;;;4954687;28;20032;-67
2021/12/21 06:07:52;;;;;;;30.08;12.15;;;1.80;99.90;;;;;;4947025;29;20028;-66
2021/12/21 06:10:28;;;;;;;30.40;12.30;;;1.70;99.90;;;;;;4938631;29;20050;-67
2021/12/21 06:26:13;;;;;;;30.05;12.05;;;1.80;99.90;;;;;;4954761;29;20032;-66
2021/12/21 06:28:40;;;;;;;31.65;12.15;;;1.80;99.90;;;;;;4949281;29;20026;-64
2021/12/21 06:31:05;;;;;;;37.03;12.45;;;1.80;99.90;;;;;;4942989;29;20063;-66
2021/12/21 06:33:31;;;;;;;32.33;12.23;;;1.80;99.90;;;;;;4952526;29;20062;-65
2021/12/21 06:35:58;;;;;;;33.70;12.50;;;1.80;99.90;;;;;;4954128;29;20016;-65
2021/12/21 06:38:25;;;;;;;31.63;12.18;;;1.80;99.90;;;;;;4949647;29;20039;-65
2021/12/21 06:40:51;;;;;;;30.13;11.60;;;1.80;99.90;;;;;;4942266;29;20031;-66
2021/12/21 06:43:18;;;;;;;32.00;13.55;;;1.80;99.90;;;;;;4955637;29;20028;-66
2021/12/21 06:46:05;;;;;;;32.83;13.60;;;1.80;99.90;;;;;;4954050;29;20027;-66
2021/12/21 06:53:49;;;;;;;;;;;1.70;99.90;;;;;;4936676;29;20035;-67
2021/12/21 06:56:16;;;;;;;33.80;13.73;;;1.60;99.90;;;;;;4937281;29;19914;-65
2021/12/21 06:58:42;;;;;;;35.70;15.02;;;1.50;99.90;;;;;;4949000;29;20082;-64
2021/12/21 07:01:08;;;;;;;32.55;12.43;;;1.50;99.90;;;;;;4944175;29;20051;-67
2021/12/21 07:03:34;;;;;;;32.20;13.57;;;1.50;99.90;;;;;;4934811;29;20035;-67
2021/12/21 07:06:02;;;;;;;33.38;12.93;;;1.40;99.90;;;;;;4936246;29;20126;-66
2021/12/21 07:08:30;;;;;;;35.05;14.73;;;1.40;99.90;;;;;;4936205;29;20031;-65
2021/12/21 07:19:10;;;;;;;35.90;15.77;;;1.40;99.90;;;;;;4952491;29;20034;-65
2021/12/21 07:21:36;;;;;;;35.65;14.30;;;1.30;99.90;;;;;;4943264;29;20035;-65
2021/12/21 07:24:02;;;;;;;34.33;12.73;;;1.30;99.90;;;;;;4948439;29;20019;-65
2021/12/21 07:26:30;;;;;;;32.78;13.20;;;1.30;99.90;;;;;;4953458;29;20030;-66
2021/12/21 07:28:56;;;;;;;31.30;12.85;;;1.30;99.90;;;;;;4940568;29;20027;-66
2021/12/21 07:31:22;;;;;;;33.25;13.63;;;1.20;99.90;;;;;;4950500;29;20086;-65
2021/12/21 07:33:47;;;;;;;37.67;13.73;;;1.20;99.90;;;;;;4935399;29;20035;-64
2021/12/21 07:36:13;;;;;;;34.15;14.52;;;1.20;99.90;;;;;;4935727;29;20027;-64
2021/12/21 07:38:39;;;;;;;32.83;14.00;;;1.30;99.90;;;;;;4944621;29;20078;-66
2021/12/21 07:41:04;;;;;;;34.55;14.18;;;1.30;99.90;;;;;;4950515;29;20027;-64
2021/12/21 07:43:30;;;;;;;38.13;14.98;;;1.30;99.90;;;;;;4954345;29;20114;-65
2021/12/21 07:45:56;;;;;;;31.77;16.63;;;1.20;99.90;;;;;;4954490;29;20039;-66
2021/12/21 07:48:22;;;;;;;38.00;17.52;;;1.20;99.90;;;;;;4953872;29;20431;-67
2021/12/21 07:50:49;;;;;;;43.10;17.67;;;1.20;99.90;;;;;;4954324;29;20031;-66
2021/12/21 07:53:16;;;;;;;39.58;17.52;;;1.20;99.90;;;;;;4923286;29;20083;-67
2021/12/21 07:55:42;;;;;;;45.83;18.42;;;1.20;99.90;;;;;;4948161;29;20019;-67
2021/12/21 07:58:08;;;;;;;42.53;18.20;;;1.20;99.90;;;;;;4942597;29;20054;-66
2021/12/21 08:00:34;;;;;;;43.80;19.15;;;1.30;99.90;;;;;;4935940;29;20028;-66
2021/12/21 08:03:00;;;;;;;38.58;17.85;;;1.30;99.90;;;;;;4947907;28;20098;-66
2021/12/21 08:05:31;;;;;;;36.88;17.48;;;1.30;99.90;;;;;;4973543;28;20121;-66
2021/12/21 08:08:07;;;;;;;42.58;17.00;;;1.30;99.90;;;;;;4955825;28;20098;-67
2021/12/21 08:10:43;;;;;;;38.63;16.27;;;1.30;99.90;;;;;;4953165;29;20038;-67
2021/12/21 08:13:09;;;;;;;38.05;17.17;;;1.30;99.90;;;;;;4951685;28;20058;-67
2021/12/21 08:15:35;;;;;;;39.63;17.48;;;1.30;99.90;;;;;;4953042;29;20609;-67
2021/12/21 08:18:01;;;;;;;32.17;15.82;;;1.30;99.90;;;;;;4947375;28;20023;-66
2021/12/21 08:20:27;;;;;;;31.50;13.45;;;1.30;99.90;;;;;;4958493;28;20442;-67
2021/12/21 08:22:56;;;;;;;32.78;14.48;;;1.20;99.90;;;;;;4940842;28;20027;-66
2021/12/21 08:25:24;;;;;;;36.22;14.40;;;1.30;99.90;;;;;;4954590;28;20034;-66
2021/12/21 08:27:55;;;;;;;32.80;16.77;;;1.20;99.90;;;;;;4954697;28;20055;-67
2021/12/21 08:30:20;;;;;;;44.33;17.40;;;1.20;99.90;;;;;;4960941;28;20019;-67
2021/12/21 08:32:46;;;;;;;39.40;19.50;;;1.30;99.90;;;;;;4957793;29;20407;-66
2021/12/21 08:35:12;;;;;;;51.85;20.98;;;1.30;99.90;;;;;;4957784;29;20106;-66
2021/12/21 08:37:39;;;;;;;49.53;21.70;;;1.40;99.90;;;;;;4958622;28;20015;-67
2021/12/21 08:40:07;;;;;;;72.60;24.17;;;1.40;99.90;;;;;;4957697;28;20448;-67
2021/12/21 08:42:35;;;;;;;50.00;22.30;;;1.50;99.90;;;;;;4957588;29;20035;-65
2021/12/21 08:45:06;;;;;;;40.88;19.13;;;1.60;99.90;;;;;;4957793;29;20051;-67
2021/12/21 08:47:35;;;;;;;40.20;19.05;;;1.70;99.90;;;;;;4957496;28;20069;-66
2021/12/21 08:50:02;;;;;;;46.20;19.75;;;1.70;99.90;;;;;;4957598;29;20027;-67
2021/12/21 08:52:28;;;;;;;40.22;18.23;;;1.80;99.90;;;;;;4955963;28;20026;-67
2021/12/21 08:54:53;;;;;;;36.22;17.10;;;1.80;99.90;;;;;;4958361;28;20443;-67
2021/12/21 08:57:19;;;;;;;41.05;17.80;;;1.90;99.90;;;;;;4954015;28;20038;-67
2021/12/21 08:59:45;;;;;;;43.97;16.48;;;2.00;99.90;;;;;;4960022;28;20500;-67
2021/12/21 09:02:10;;;;;;;39.80;16.42;;;2.00;99.90;;;;;;4954467;28;20041;-67
2021/12/21 09:04:37;;;;;;;36.80;14.88;;;2.10;99.90;;;;;;4956426;28;20046;-67
2021/12/21 09:07:03;;;;;;;31.48;13.88;;;2.10;99.90;;;;;;4955887;28;20372;-66
2021/12/21 09:09:31;;;;;;;34.78;12.90;;;2.20;99.90;;;;;;4957192;28;20032;-67
2021/12/21 09:11:57;;;;;;;32.05;12.63;;;2.20;99.90;;;;;;4954369;28;20044;-66
2021/12/21 09:14:23;;;;;;;28.60;11.23;;;2.30;99.90;;;;;;4955148;28;20027;-66
2021/12/21 09:16:50;;;;;;;25.73;10.60;;;2.40;99.90;;;;;;4957409;28;20494;-67
2021/12/21 09:19:16;;;;;;;24.95;8.68;;;2.40;99.90;;;;;;4956125;28;20030;-65
2021/12/21 09:21:42;;;;;;;23.38;8.00;;;2.40;99.90;;;;;;4959655;28;20073;-67
2021/12/21 09:24:09;;;;;;;18.48;8.20;;;2.50;99.90;;;;;;4965254;28;20030;-66
2021/12/21 09:26:35;;;;;;;23.08;8.15;;;2.50;99.90;;;;;;4954767;28;20059;-67
2021/12/21 09:29:01;;;;;;;17.50;6.57;;;2.60;99.90;;;;;;4954397;28;20058;-67
2021/12/21 09:31:26;;;;;;;24.58;7.78;;;2.70;99.90;;;;;;4957932;28;20066;-66
2021/12/21 09:33:53;;;;;;;21.95;7.53;;;2.70;99.90;;;;;;4956582;28;20032;-68
2021/12/21 09:36:19;;;;;;;21.60;7.97;;;2.70;99.90;;;;;;4955457;28;20530;-66
2021/12/21 09:38:44;;;;;;;29.48;9.20;;;2.80;99.90;;;;;;4954833;28;20523;-65
2021/12/21 09:41:11;;;;;;;20.92;7.85;;;2.90;99.90;;;;;;4958415;28;20101;-66
2021/12/21 09:43:40;;;;;;;22.58;8.57;;;3.00;99.90;;;;;;4956017;28;20118;-65
2021/12/21 09:46:06;;;;;;;20.10;7.32;;;3.10;99.90;;;;;;4957407;28;20036;-67
2021/12/21 09:48:32;;;;;;;19.17;6.88;;;3.10;99.90;;;;;;4952454;28;20061;-66
2021/12/21 09:50:58;;;;;;;20.85;7.47;;;3.30;99.90;;;;;;4958595;28;20062;-68
2021/12/21 09:53:25;;;;;;;19.42;7.82;;;3.40;99.90;;;;;;4956573;28;20026;-67
2021/12/21 09:55:51;;;;;;;19.50;8.05;;;3.50;99.90;;;;;;4943963;28;20031;-67
2021/12/21 09:58:16;;;;;;;20.33;7.50;;;3.60;99.90;;;;;;4952049;28;20392;-69
2021/12/21 10:00:42;;;;;;;15.85;7.15;;;3.80;99.90;;;;;;4957720;28;20059;-67
2021/12/21 10:03:10;;;;;;;17.90;6.25;;;3.90;99.90;;;;;;4956422;28;20488;-67
2021/12/21 10:05:38;;;;;;;25.25;7.05;;;4.10;99.90;;;;;;4957684;28;20097;-67
2021/12/21 10:08:16;;;;;;;20.83;7.80;;;4.20;99.90;;;;;;4955878;28;20031;-67
2021/12/21 10:10:47;;;;;;;25.17;7.43;;;4.20;99.90;;;;;;4956171;28;20035;-68
2021/12/21 10:13:19;;;;;;;19.83;7.30;;;4.10;99.90;;;;;;4956869;28;20039;-66
2021/12/21 10:15:46;;;;;;;;;;;4.10;99.90;;;;;;4958101;28;20042;-67
2021/12/21 10:18:12;;;;;;;25.83;8.10;;;4.00;99.90;;;;;;4953238;28;19917;-68
2021/12/21 10:20:43;;;;;;;25.42;8.70;;;3.90;99.90;;;;;;4954933;28;20043;-69
2021/12/21 10:23:09;;;;;;;19.00;7.37;;;3.80;99.90;;;;;;4953960;28;20471;-69
2021/12/21 10:25:44;;;;;;;22.20;7.93;;;3.80;99.90;;;;;;4962104;28;20036;-67
2021/12/21 10:28:10;;;;;;;22.92;8.52;;;3.80;99.90;;;;;;4936609;29;20087;-68
2021/12/21 10:30:47;;;;;;;19.77;7.10;;;3.80;99.90;;;;;;4935998;29;20067;-67
2021/12/21 10:33:13;;;;;;;19.88;7.35;;;3.90;99.90;;;;;;4936208;29;20048;-65
2021/12/21 10:35:39;;;;;;;15.65;6.50;;;4.40;99.90;;;;;;4937326;28;20035;-69
2021/12/21 10:38:08;;;;;;;20.85;7.20;;;5.10;99.90;;;;;;4960093;28;20034;-66
2021/12/21 10:40:33;;;;;;;13.65;5.50;;;5.80;99.90;;;;;;4957716;28;20031;-66
2021/12/21 10:43:03;;;;;;;17.85;6.35;;;6.60;99.90;;;;;;4974949;28;20033;-68
2021/12/21 10:45:40;;;;;;;17.33;5.85;;;7.30;99.90;;;;;;4953094;28;20077;-66
2021/12/21 10:48:18;;;;;;;14.70;6.05;;;8.00;99.90;;;;;;4956901;28;20027;-66
2021/12/21 10:50:46;;;;;;;15.40;5.50;;;8.40;99.90;;;;;;4956387;28;20039;-67
2021/12/21 10:53:23;;;;;;;15.07;5.80;;;8.80;99.90;;;;;;4956569;28;20062;-68
2021/12/21 10:56:08;;;;;;;15.98;5.50;;;9.20;99.90;;;;;;4965387;28;20030;-68
2021/12/21 10:58:43;;;;;;;17.80;6.05;;;9.50;99.90;;;;;;4974371;28;20118;-68
2021/12/21 11:01:13;;;;;;;24.13;7.03;;;9.90;99.90;;;;;;4955630;28;20035;-69
2021/12/21 11:03:49;;;;;;;26.92;6.65;;;10.20;99.90;;;;;;4960897;28;20043;-67
2021/12/21 11:06:16;;;;;;;18.52;5.75;;;10.50;99.90;;;;;;4974409;28;20026;-69
2021/12/21 11:08:45;;;;;;;18.38;5.90;;;10.70;99.90;;;;;;4970508;28;20089;-68
2021/12/21 11:11:33;;;;;;;15.45;5.85;;;10.90;99.90;;;;;;4969316;28;20034;-68
2021/12/21 11:14:14;;;;;;;19.17;5.50;;;11.20;99.90;;;;;;4960203;28;20490;-70
2021/12/21 11:16:40;;;;;;;14.60;5.40;;;11.40;99.40;;;;;;4974247;28;20026;-69
2021/12/21 11:19:06;;;;;;;14.00;5.00;;;11.60;98.70;;;;;;4961553;28;20024;-70
2021/12/21 11:21:33;;;;;;;14.70;5.38;;;11.60;97.80;;;;;;4937681;29;20065;-69
2021/12/21 11:24:02;;;;;;;15.20;5.28;;;11.60;97.40;;;;;;4946684;28;20066;-72
2021/12/21 11:26:30;;;;;;;20.30;6.15;;;11.60;97.60;;;;;;4954617;29;20360;-68
2021/12/21 11:29:02;;;;;;;16.67;5.20;;;11.60;97.40;;;;;;4951883;29;20028;-69
2021/12/21 11:31:28;;;;;;;13.93;4.93;;;11.70;98.20;;;;;;4954701;28;20132;-70
2021/12/21 11:33:58;;;;;;;11.35;5.20;;;11.80;96.70;;;;;;4957908;28;20043;-71
2021/12/21 11:39:08;;;;;;;19.50;6.47;;;11.90;96.80;;;;;;4973895;28;20033;-69
2021/12/21 11:41:36;;;;;;;15.45;5.80;;;11.90;95.90;;;;;;4960804;28;20037;-70
2021/12/21 11:44:20;;;;;;;12.30;5.72;;;11.90;95.30;;;;;;4954874;29;20082;-73
2021/12/21 11:47:01;;;;;;;17.60;5.57;;;11.80;94.90;;;;;;4954511;29;20410;-73
2021/12/21 11:49:45;;;;;;;15.68;6.22;;;11.80;95.30;;;;;;4954894;29;20027;-70
2021/12/21 11:52:20;;;;;;;17.00;6.50;;;11.70;95.00;;;;;;4958427;28;20312;-72
2021/12/21 11:54:53;;;;;;;15.23;5.80;;;11.80;95.20;;;;;;4963079;28;20023;-72
2021/12/21 11:57:32;;;;;;;15.32;6.00;;;11.80;94.80;;;;;;4946454;28;20046;-72
2021/12/21 12:00:08;;;;;;;19.02;5.88;;;11.80;94.80;;;;;;4953850;28;20591;-73
2021/12/21 12:02:34;;;;;;;15.85;6.47;;;12.00;95.20;;;;;;4945972;28;20035;-72
2021/12/21 12:05:00;;;;;;;14.73;6.63;;;12.20;94.90;;;;;;4954519;28;20174;-73
2021/12/21 12:07:26;;;;;;;13.15;5.80;;;12.30;93.90;;;;;;4953812;28;20529;-73
2021/12/21 12:10:15;;;;;;;19.83;6.03;;;12.40;93.70;;;;;;4954079;28;20421;-73
2021/12/21 12:12:42;;;;;;;15.00;6.10;;;12.50;93.70;;;;;;4960081;28;20054;-74
2021/12/21 12:15:10;;;;;;;15.30;6.05;;;12.50;93.90;;;;;;4954532;29;20023;-75
2021/12/21 12:17:50;;;;;;;12.50;5.97;;;12.60;93.10;;;;;;4953098;29;20403;-75
2021/12/21 12:20:25;;;;;;;13.98;5.70;;;12.60;92.70;;;;;;4954061;28;20475;-73
2021/12/21 12:23:01;;;;;;;15.80;5.80;;;12.50;92.30;;;;;;4954335;29;20054;-72
2021/12/21 12:25:27;;;;;;;15.38;5.88;;;12.50;92.40;;;;;;4937001;29;20035;-76
2021/12/21 12:27:54;;;;;;;17.33;5.88;;;12.30;92.20;;;;;;4951729;28;20035;-75
2021/12/21 12:30:29;;;;;;;16.10;6.25;;;12.30;92.60;;;;;;4949944;28;20101;-74
2021/12/21 12:33:00;;;;;;;13.73;5.60;;;12.10;92.20;;;;;;4953153;28;20035;-73
2021/12/21 12:35:34;;;;;;;16.45;5.25;;;12.10;92.00;;;;;;4945563;28;20038;-74
2021/12/21 12:38:15;;;;;;;17.25;5.72;;;11.90;91.30;;;;;;4957259;28;20035;-76
2021/12/21 12:40:45;;;;;;;11.38;4.50;;;11.90;92.30;;;;;;4971234;28;20042;-75
2021/12/21 12:43:15;;;;;;;13.68;5.53;;;11.80;91.40;;;;;;4971461;28;20390;-74
2021/12/21 12:46:07;;;;;;;17.38;5.35;;;11.80;92.10;;;;;;4958060;28;20106;-72
2021/12/21 12:48:46;;;;;;;;;;;11.90;92.10;;;;;;4947059;28;21269;-72
2021/12/21 12:51:28;;;;;;;17.85;5.45;;;11.90;92.00;;;;;;4953984;28;19953;-72
2021/12/21 12:53:54;;;;;;;13.27;5.05;;;11.80;92.00;;;;;;4963136;28;20022;-72
2021/12/21 12:56:20;;;;;;;12.80;4.88;;;11.80;91.40;;;;;;4953103;29;20139;-72
2021/12/21 12:58:58;;;;;;;12.43;5.03;;;11.80;90.10;;;;;;4951517;28;20070;-72
2021/12/21 13:01:26;;;;;;;10.98;4.53;;;11.60;89.20;;;;;;4953497;29;20034;-72
2021/12/21 13:03:55;;;;;;;14.38;4.85;;;11.30;89.40;;;;;;4955145;28;20074;-72
2021/12/21 13:06:33;;;;;;;12.15;5.63;;;11.20;90.30;;;;;;4938516;29;20032;-72
2021/12/21 13:08:59;;;;;;;12.90;4.90;;;11.10;90.90;;;;;;4957528;28;20063;-72
2021/12/21 13:11:28;;;;;;;9.95;4.28;;;11.10;91.30;;;;;;4962086;28;20042;-72
2021/12/21 13:13:54;;;;;;;13.20;4.68;;;11.10;91.40;;;;;;4957789;28;20035;-72
2021/12/21 13:16:23;;;;;;;14.82;4.82;;;11.20;91.80;;;;;;4956939;28;20041;-71
2021/12/21 13:18:58;;;;;;;12.93;5.40;;;11.20;92.00;;;;;;4955338;28;20494;-72
2021/12/21 13:21:32;;;;;;;12.40;4.50;;;11.00;90.40;;;;;;4957876;28;20031;-71
2021/12/21 13:24:19;;;;;;;15.05;4.97;;;10.80;91.20;;;;;;4954453;28;20024;-71
2021/12/21 13:26:52;;;;;;;13.50;5.03;;;10.50;92.00;;;;;;4956275;28;20106;-71
2021/12/21 13:29:24;;;;;;;15.60;4.68;;;10.20;92.10;;;;;;4958182;28;20435;-73
2021/12/21 13:31:52;;;;;;;11.95;5.85;;;10.00;92.50;;;;;;4957651;28;20030;-70
2021/12/21 13:34:20;;;;;;;16.17;5.80;;;9.80;93.00;;;;;;4956243;28;20033;-70
2021/12/21 13:36:52;;;;;;;16.65;5.63;;;9.50;92.90;;;;;;4943502;29;20032;-70
2021/12/21 13:39:24;;;;;;;15.13;5.13;;;9.40;93.50;;;;;;4957445;28;20031;-70
2021/12/21 13:41:58;;;;;;;17.98;4.60;;;9.20;94.40;;;;;;4955424;28;20039;-69
2021/12/21 13:44:39;;;;;;;18.42;7.03;;;8.90;95.00;;;;;;4952890;28;20018;-70
2021/12/21 13:47:18;;;;;;;18.08;5.25;;;8.80;95.60;;;;;;4953460;28;20032;-70